createdAt,value
2023-05-05T00:00:05.839Z,42.68
2023-05-05T00:01:05.757Z,42.45
2023-05-05T00:02:05.792Z,42.40
2023-05-05T00:03:05.863Z,42.44
2023-05-05T00:04:05.969Z,42.22
2023-05-05T00:05:05.962Z,42.21
2023-05-05T00:06:05.995Z,41.84
2023-05-05T00:07:06.029Z,42.11
2023-05-05T00:08:06.078Z,42.39
2023-05-05T00:09:06.111Z,41.99
2023-05-05T00:10:06.247Z,42.61
2023-05-05T00:11:06.222Z,42.56
2023-05-05T00:12:06.241Z,42.50
2023-05-05T00:13:06.331Z,42.68
2023-05-05T00:14:06.369Z,42.57
2023-05-05T00:15:06.301Z,42.93
2023-05-05T00:16:06.317Z,43.39
2023-05-05T00:17:06.421Z,43.53
2023-05-05T00:18:06.401Z,43.58
2023-05-05T00:19:06.365Z,43.73
2023-05-05T00:20:06.758Z,43.21
2023-05-05T00:21:06.382Z,43.55
2023-05-05T00:22:06.384Z,43.40
2023-05-05T00:23:06.394Z,43.52
2023-05-05T00:24:06.454Z,43.48
2023-05-05T00:25:06.431Z,43.46
2023-05-05T00:26:06.469Z,43.33
2023-05-05T00:27:06.457Z,43.53
2023-05-05T00:28:06.424Z,43.84
2023-05-05T00:29:06.437Z,43.79
2023-05-05T00:30:06.661Z,43.67
2023-05-05T00:31:06.534Z,43.83
2023-05-05T00:32:06.525Z,44.18
2023-05-05T00:33:06.642Z,43.81
2023-05-05T00:34:06.631Z,44.04
2023-05-05T00:35:06.656Z,43.79
2023-05-05T00:36:06.701Z,43.72
2023-05-05T00:37:06.719Z,43.72
2023-05-05T00:38:06.757Z,44.09
2023-05-05T00:39:06.850Z,43.83
2023-05-05T00:40:07.136Z,43.95
2023-05-05T00:41:06.906Z,43.85
2023-05-05T00:42:06.926Z,44.03
2023-05-05T00:43:06.944Z,43.79
2023-05-05T00:44:06.997Z,43.75
2023-05-05T00:45:07.043Z,43.69
2023-05-05T00:46:07.086Z,43.94
2023-05-05T00:47:07.095Z,43.91
2023-05-05T00:48:07.200Z,44.06
2023-05-05T00:49:07.254Z,44.46
2023-05-05T00:50:07.417Z,44.27
2023-05-05T00:51:07.252Z,44.38
2023-05-05T00:52:07.358Z,44.36
2023-05-05T00:53:07.393Z,44.47
2023-05-05T00:54:07.398Z,44.29
2023-05-05T00:55:07.472Z,44.06
2023-05-05T00:56:07.520Z,44.03
2023-05-05T00:57:07.564Z,44.15
2023-05-05T00:58:07.602Z,44.53
2023-05-05T00:59:07.652Z,44.28
2023-05-05T01:00:07.882Z,44.21
2023-05-05T01:01:07.868Z,44.35
2023-05-05T01:02:07.851Z,44.36
2023-05-05T01:03:08.003Z,44.39
2023-05-05T01:04:08.052Z,44.41
2023-05-05T01:05:08.030Z,44.66
2023-05-05T01:06:08.134Z,44.55
2023-05-05T01:07:08.143Z,44.50
2023-05-05T01:08:08.208Z,44.42
2023-05-05T01:09:08.267Z,44.75
2023-05-05T01:10:18.802Z,44.62
2023-05-05T01:11:09.303Z,44.83
2023-05-05T01:12:08.276Z,44.49
2023-05-05T01:13:08.354Z,44.54
2023-05-05T01:14:08.257Z,44.38
2023-05-05T01:15:08.290Z,44.25
2023-05-05T01:16:08.350Z,44.22
2023-05-05T01:17:08.227Z,44.21
2023-05-05T01:18:08.281Z,44.23
2023-05-05T01:19:08.312Z,44.29
2023-05-05T01:20:08.580Z,44.41
2023-05-05T01:21:08.463Z,44.24
2023-05-05T01:22:08.426Z,44.40
2023-05-05T01:23:08.531Z,44.29
2023-05-05T01:24:08.603Z,44.44
2023-05-05T01:25:08.612Z,44.43
2023-05-05T01:26:08.691Z,44.59
2023-05-05T01:27:08.767Z,44.63
2023-05-05T01:28:08.762Z,44.65
2023-05-05T01:29:08.768Z,44.67
2023-05-05T01:30:08.931Z,44.66
2023-05-05T01:31:08.817Z,44.97
2023-05-05T01:32:08.795Z,44.71
2023-05-05T01:33:08.791Z,44.84
2023-05-05T01:34:08.833Z,44.68
2023-05-05T01:35:08.818Z,44.70
2023-05-05T01:36:08.878Z,44.71
2023-05-05T01:37:08.888Z,45.00
2023-05-05T01:38:08.885Z,45.16
2023-05-05T01:39:08.937Z,45.33
2023-05-05T01:40:09.057Z,45.70
2023-05-05T01:41:08.956Z,45.57
2023-05-05T01:42:09.008Z,45.56
2023-05-05T01:43:09.052Z,45.15
2023-05-05T01:44:09.074Z,45.46
2023-05-05T01:45:09.154Z,45.52
2023-05-05T01:46:09.272Z,45.19
2023-05-05T01:47:09.298Z,45.39
2023-05-05T01:48:09.313Z,45.56
2023-05-05T01:49:09.368Z,45.78
2023-05-05T01:50:09.718Z,45.41
2023-05-05T01:51:09.470Z,45.46
2023-05-05T01:52:09.543Z,45.37
2023-05-05T01:53:09.592Z,45.47
2023-05-05T01:54:09.670Z,45.72
2023-05-05T01:55:09.662Z,45.92
2023-05-05T01:56:09.777Z,45.63
2023-05-05T01:57:09.811Z,45.30
2023-05-05T01:58:09.864Z,45.08
2023-05-05T01:59:09.896Z,45.42
2023-05-05T02:00:10.194Z,45.38
2023-05-05T02:01:10.025Z,45.34
2023-05-05T02:02:11.011Z,45.32
2023-05-05T02:03:10.134Z,45.33
2023-05-05T02:04:10.116Z,45.41
2023-05-05T02:05:10.166Z,45.52
2023-05-05T02:06:10.270Z,45.39
2023-05-05T02:07:10.273Z,45.52
2023-05-05T02:08:10.290Z,45.48
2023-05-05T02:09:10.371Z,45.60
2023-05-05T02:10:10.549Z,45.70
2023-05-05T02:11:10.504Z,45.96
2023-05-05T02:12:10.567Z,46.01
2023-05-05T02:13:10.725Z,46.40
2023-05-05T02:14:10.651Z,45.94
2023-05-05T02:15:10.720Z,46.13
2023-05-05T02:16:10.875Z,45.77
2023-05-05T02:17:10.864Z,45.76
2023-05-05T02:18:10.898Z,45.79
2023-05-05T02:19:10.968Z,45.96
2023-05-05T02:20:11.013Z,46.05
2023-05-05T02:21:11.115Z,46.03
2023-05-05T02:22:11.172Z,45.91
2023-05-05T02:23:11.178Z,46.02
2023-05-05T02:24:11.250Z,46.19
2023-05-05T02:25:11.341Z,46.00
2023-05-05T02:26:11.382Z,46.28
2023-05-05T02:27:11.421Z,46.05
2023-05-05T02:28:11.503Z,46.37
2023-05-05T02:29:11.585Z,46.29
2023-05-05T02:30:11.634Z,46.39
2023-05-05T02:31:11.712Z,46.61
2023-05-05T02:32:11.756Z,46.32
2023-05-05T02:33:11.777Z,46.21
2023-05-05T02:34:11.823Z,46.81
2023-05-05T02:35:11.884Z,46.88
2023-05-05T02:36:11.921Z,46.71
2023-05-05T02:37:12.019Z,46.46
2023-05-05T02:38:12.056Z,46.26
2023-05-05T02:39:12.112Z,46.35
2023-05-05T02:40:12.154Z,46.41
2023-05-05T02:41:12.203Z,46.63
2023-05-05T02:42:12.172Z,46.41
2023-05-05T02:43:12.277Z,46.29
2023-05-05T02:44:12.253Z,45.99
2023-05-05T02:45:12.318Z,46.15
2023-05-05T02:46:12.373Z,46.19
2023-05-05T02:47:12.343Z,46.10
2023-05-05T02:48:12.387Z,46.24
2023-05-05T02:49:12.431Z,46.22
2023-05-05T02:50:13.414Z,46.44
2023-05-05T02:51:12.542Z,46.44
2023-05-05T02:52:12.663Z,46.92
2023-05-05T02:53:12.682Z,46.64
2023-05-05T02:54:12.736Z,46.56
2023-05-05T02:55:12.734Z,46.92
2023-05-05T02:56:12.810Z,46.76
2023-05-05T02:57:12.867Z,46.68
2023-05-05T02:58:12.902Z,46.74
2023-05-05T02:59:15.878Z,46.68
2023-05-05T03:00:12.955Z,46.68
2023-05-05T03:01:12.974Z,46.64
2023-05-05T03:02:12.947Z,46.67
2023-05-05T03:03:12.989Z,46.84
2023-05-05T03:04:12.891Z,46.62
2023-05-05T03:05:12.922Z,46.46
2023-05-05T03:06:12.878Z,46.38
2023-05-05T03:07:12.944Z,46.57
2023-05-05T03:08:12.865Z,46.60
2023-05-05T03:09:12.877Z,46.35
2023-05-05T03:10:12.882Z,46.33
2023-05-05T03:11:12.852Z,46.67
2023-05-05T03:12:12.850Z,46.28
2023-05-05T03:13:12.938Z,46.43
2023-05-05T03:14:12.820Z,46.38
2023-05-05T03:15:12.815Z,46.56
2023-05-05T03:16:12.807Z,46.46
2023-05-05T03:17:12.800Z,46.56
2023-05-05T03:18:12.817Z,46.74
2023-05-05T03:19:12.804Z,46.70
2023-05-05T03:20:12.759Z,46.35
2023-05-05T03:21:12.790Z,46.68
2023-05-05T03:22:12.749Z,46.58
2023-05-05T03:23:12.728Z,46.55
2023-05-05T03:24:12.732Z,46.64
2023-05-05T03:25:12.751Z,46.63
2023-05-05T03:26:12.735Z,46.34
2023-05-05T03:27:12.754Z,46.46
2023-05-05T03:28:12.704Z,46.66
2023-05-05T03:29:12.715Z,46.69
2023-05-05T03:30:12.723Z,47.14
2023-05-05T03:31:12.743Z,46.99
2023-05-05T03:32:12.796Z,47.31
2023-05-05T03:33:12.708Z,46.80
2023-05-05T03:34:12.705Z,46.96
2023-05-05T03:35:12.716Z,46.89
2023-05-05T03:36:12.696Z,46.59
2023-05-05T03:37:12.655Z,46.28
2023-05-05T03:38:12.667Z,46.42
2023-05-05T03:39:12.677Z,46.48
2023-05-05T03:40:12.654Z,46.49
2023-05-05T03:41:12.643Z,46.65
2023-05-05T03:42:12.658Z,46.53
2023-05-05T03:43:12.603Z,46.58
2023-05-05T03:44:12.596Z,46.79
2023-05-05T03:45:12.606Z,46.93
2023-05-05T03:46:12.621Z,46.80
2023-05-05T03:47:12.578Z,47.06
2023-05-05T03:48:12.596Z,47.07
2023-05-05T03:49:12.605Z,47.07
2023-05-05T03:50:12.552Z,47.19
2023-05-05T03:51:12.555Z,47.13
2023-05-05T03:52:14.514Z,47.10
2023-05-05T03:53:12.732Z,47.02
2023-05-05T03:54:12.731Z,47.20
2023-05-05T03:55:12.740Z,47.57
2023-05-05T03:56:12.758Z,47.56
2023-05-05T03:57:12.770Z,47.74
2023-05-05T03:58:12.753Z,47.65
2023-05-05T03:59:12.771Z,47.57
2023-05-05T04:00:12.774Z,47.52
2023-05-05T04:01:12.782Z,47.43
2023-05-05T04:02:12.830Z,47.38
2023-05-05T04:03:12.890Z,47.85
2023-05-05T04:04:12.905Z,47.62
2023-05-05T04:05:12.774Z,47.60
2023-05-05T04:06:12.759Z,47.48
2023-05-05T04:07:12.761Z,47.39
2023-05-05T04:08:12.788Z,47.36
2023-05-05T04:09:12.736Z,47.74
2023-05-05T04:10:12.759Z,47.36
2023-05-05T04:11:12.750Z,47.25
2023-05-05T04:12:12.809Z,47.12
2023-05-05T04:13:12.908Z,47.38
2023-05-05T04:14:12.878Z,47.42
2023-05-05T04:15:12.889Z,47.28
2023-05-05T04:16:12.981Z,47.25
2023-05-05T04:17:12.969Z,47.72
2023-05-05T04:18:13.001Z,47.22
2023-05-05T04:19:13.032Z,46.98
2023-05-05T04:20:13.078Z,46.94
2023-05-05T04:21:13.072Z,47.00
2023-05-05T04:22:13.125Z,46.98
2023-05-05T04:23:13.150Z,46.96
2023-05-05T04:24:13.167Z,47.11
2023-05-05T04:25:13.210Z,46.92
2023-05-05T04:26:13.253Z,47.08
2023-05-05T04:27:13.264Z,46.83
2023-05-05T04:28:13.288Z,46.71
2023-05-05T04:29:13.290Z,46.71
2023-05-05T04:30:13.349Z,46.86
2023-05-05T04:31:13.424Z,46.72
2023-05-05T04:32:13.371Z,47.00
2023-05-05T04:33:13.421Z,47.01
2023-05-05T04:34:13.428Z,46.68
2023-05-05T04:35:13.466Z,46.76
2023-05-05T04:36:13.488Z,46.78
2023-05-05T04:37:13.564Z,46.93
2023-05-05T04:38:13.563Z,47.11
2023-05-05T04:39:13.553Z,47.31
2023-05-05T04:40:13.570Z,47.65
2023-05-05T04:41:13.569Z,47.17
2023-05-05T04:42:13.586Z,47.07
2023-05-05T04:43:13.578Z,47.04
2023-05-05T04:44:13.606Z,47.21
2023-05-05T04:45:13.597Z,47.36
2023-05-05T04:46:13.623Z,47.24
2023-05-05T04:47:14.837Z,47.38
2023-05-05T04:48:13.728Z,47.34
2023-05-05T04:49:13.735Z,47.29
2023-05-05T04:50:13.768Z,47.10
2023-05-05T04:51:13.764Z,47.01
2023-05-05T04:52:13.797Z,46.81
2023-05-05T04:53:13.802Z,46.81
2023-05-05T04:54:13.881Z,46.82
2023-05-05T04:55:13.874Z,46.64
2023-05-05T04:56:13.894Z,46.54
2023-05-05T04:57:13.911Z,46.56
2023-05-05T04:58:13.953Z,46.49
2023-05-05T04:59:13.940Z,46.51
2023-05-05T05:00:14.016Z,46.65
2023-05-05T05:02:33.612Z,46.76
2023-05-05T05:03:33.713Z,46.57
2023-05-05T05:04:33.555Z,46.91
2023-05-05T05:05:33.472Z,46.21
2023-05-05T05:06:33.546Z,46.33
2023-05-05T05:07:33.474Z,46.45
2023-05-05T05:08:33.439Z,46.59
2023-05-05T05:09:33.438Z,46.62
2023-05-05T05:10:33.438Z,46.49
2023-05-05T05:11:33.452Z,46.44
2023-05-05T05:12:33.450Z,46.48
2023-05-05T05:13:33.419Z,46.44
2023-05-05T05:14:33.431Z,46.63
2023-05-05T05:15:33.423Z,46.54
2023-05-05T05:16:33.463Z,46.26
2023-05-05T05:17:33.468Z,46.31
2023-05-05T05:18:33.404Z,46.34
2023-05-05T05:19:33.402Z,46.25
2023-05-05T05:20:33.377Z,46.42
2023-05-05T05:21:33.380Z,46.16
2023-05-05T05:22:33.680Z,46.40
2023-05-05T05:23:33.333Z,46.23
2023-05-05T05:24:33.332Z,46.37
2023-05-05T05:25:33.492Z,46.33
2023-05-05T05:26:33.345Z,46.27
2023-05-05T05:27:33.337Z,46.21
2023-05-05T05:28:33.348Z,46.15
2023-05-05T05:29:33.316Z,46.30
2023-05-05T05:30:33.318Z,45.94
2023-05-05T05:31:33.322Z,45.95
2023-05-05T05:32:33.763Z,46.00
2023-05-05T05:33:33.282Z,46.03
2023-05-05T05:34:33.296Z,45.94
2023-05-05T05:35:33.249Z,46.04
2023-05-05T05:36:33.320Z,45.97
2023-05-05T05:37:33.756Z,46.02
2023-05-05T05:38:33.342Z,45.87
2023-05-05T05:39:33.236Z,46.15
2023-05-05T05:40:33.254Z,45.58
2023-05-05T05:41:33.235Z,46.20
2023-05-05T05:42:33.203Z,45.75
2023-05-05T05:43:33.237Z,45.94
2023-05-05T05:44:33.246Z,45.90
2023-05-05T05:45:33.154Z,44.98
2023-05-05T05:47:53.879Z,45.61
2023-05-05T05:48:53.095Z,45.61
2023-05-05T05:49:52.953Z,45.30
2023-05-05T05:50:52.985Z,45.06
2023-05-05T05:51:52.996Z,44.89
2023-05-05T05:52:53.838Z,44.72
2023-05-05T05:53:52.913Z,44.70
2023-05-05T05:54:52.930Z,44.99
2023-05-05T05:55:53.976Z,44.57
2023-05-05T05:56:52.921Z,44.92
2023-05-05T05:57:53.336Z,44.72
2023-05-05T05:58:52.977Z,44.49
2023-05-05T05:59:52.967Z,44.24
2023-05-05T06:00:52.930Z,44.44
2023-05-05T06:01:53.035Z,44.43
2023-05-05T06:02:52.995Z,44.23
2023-05-05T06:03:52.973Z,44.31
2023-05-05T06:04:52.953Z,43.97
2023-05-05T06:05:52.863Z,44.36
2023-05-05T06:06:52.882Z,44.02
2023-05-05T06:07:53.323Z,44.42
2023-05-05T06:08:52.810Z,44.86
2023-05-05T06:09:52.823Z,44.17
2023-05-05T06:10:52.890Z,43.94
2023-05-05T06:11:52.819Z,43.44
2023-05-05T06:12:52.927Z,43.40
2023-05-05T06:13:52.836Z,43.54
2023-05-05T06:14:52.838Z,43.55
2023-05-05T06:15:52.851Z,43.35
2023-05-05T06:16:52.832Z,43.02
2023-05-05T06:17:52.863Z,43.37
2023-05-05T06:18:52.765Z,42.89
2023-05-05T06:19:54.463Z,43.07
2023-05-05T06:20:52.749Z,42.67
2023-05-05T06:21:52.761Z,42.94
2023-05-05T06:22:52.770Z,41.88
2023-05-05T06:23:52.780Z,41.60
2023-05-05T06:24:52.714Z,41.37
2023-05-05T06:25:52.792Z,41.78
2023-05-05T06:26:52.794Z,41.79
2023-05-05T06:27:52.903Z,41.31
2023-05-05T06:28:52.812Z,41.17
2023-05-05T06:29:52.844Z,41.85
2023-05-05T06:30:52.855Z,41.60
2023-05-05T06:31:53.035Z,41.17
2023-05-05T06:32:52.846Z,40.88
2023-05-05T06:33:52.918Z,40.82
2023-05-05T06:34:52.857Z,40.46
2023-05-05T06:35:52.870Z,41.09
2023-05-05T06:36:52.892Z,41.14
2023-05-05T06:37:53.375Z,40.62
2023-05-05T06:38:53.904Z,41.08
2023-05-05T06:39:53.715Z,41.67
2023-05-05T06:40:52.937Z,40.50
2023-05-05T06:41:53.009Z,40.03
2023-05-05T06:42:53.101Z,39.53
2023-05-05T06:43:53.099Z,39.28
2023-05-05T06:44:53.153Z,39.74
2023-05-05T06:45:53.262Z,40.74
2023-05-05T06:46:53.879Z,40.50
2023-05-05T06:47:53.503Z,40.26
2023-05-05T06:48:53.292Z,40.01
2023-05-05T06:49:53.403Z,39.77
2023-05-05T06:50:53.501Z,38.83
2023-05-05T06:51:53.387Z,38.16
2023-05-05T06:52:53.903Z,38.67
2023-05-05T06:53:53.532Z,38.43
2023-05-05T06:54:53.495Z,38.76
2023-05-05T06:55:53.503Z,39.14
2023-05-05T06:56:53.883Z,39.12
2023-05-05T06:57:53.656Z,38.44
2023-05-05T06:58:53.538Z,37.74
2023-05-05T06:59:53.531Z,38.01
2023-05-05T07:00:53.587Z,37.36
2023-05-05T07:01:53.862Z,37.36
2023-05-05T07:02:53.986Z,36.90
2023-05-05T07:03:53.715Z,37.38
2023-05-05T07:04:53.681Z,37.13
2023-05-05T07:05:53.691Z,37.15
2023-05-05T07:06:53.665Z,38.29
2023-05-05T07:07:53.675Z,37.78
2023-05-05T07:08:53.666Z,37.74
2023-05-05T07:09:53.710Z,37.66
2023-05-05T07:10:53.852Z,37.44
2023-05-05T07:11:53.829Z,35.65
2023-05-05T07:12:53.960Z,36.65
2023-05-05T07:13:53.878Z,35.72
2023-05-05T07:14:53.945Z,35.69
2023-05-05T07:15:54.002Z,36.94
2023-05-05T07:16:54.054Z,36.80
2023-05-05T07:17:54.214Z,36.62
2023-05-05T07:18:54.141Z,36.81
2023-05-05T07:19:54.193Z,37.33
2023-05-05T07:20:54.498Z,37.09
2023-05-05T07:21:54.226Z,36.24
2023-05-05T07:22:54.308Z,35.93
2023-05-05T07:23:54.340Z,34.82
2023-05-05T07:24:54.352Z,34.90
2023-05-05T07:25:54.457Z,34.99
2023-05-05T07:26:54.974Z,35.33
2023-05-05T07:27:54.897Z,34.96
2023-05-05T07:28:54.454Z,35.30
2023-05-05T07:29:54.450Z,34.91
2023-05-05T07:30:54.471Z,34.84
2023-05-05T07:31:54.495Z,35.90
2023-05-05T07:32:54.505Z,35.42
2023-05-05T07:33:54.491Z,35.29
2023-05-05T07:34:54.489Z,36.48
2023-05-05T07:35:54.509Z,34.68
2023-05-05T07:36:54.615Z,34.94
2023-05-05T07:37:54.641Z,34.42
2023-05-05T07:38:54.747Z,35.56
2023-05-05T07:39:54.792Z,34.17
2023-05-05T07:40:54.811Z,34.22
2023-05-05T07:41:54.842Z,34.27
2023-05-05T07:42:55.437Z,33.70
2023-05-05T07:43:54.972Z,33.95
2023-05-05T07:44:55.085Z,32.23
2023-05-05T07:45:55.099Z,33.26
2023-05-05T07:46:55.146Z,32.36
2023-05-05T07:47:55.144Z,33.33
2023-05-05T07:48:55.191Z,31.55
2023-05-05T07:49:55.334Z,32.10
2023-05-05T07:50:55.241Z,31.51
2023-05-05T07:51:55.316Z,31.87
2023-05-05T07:53:02.397Z,31.97
2023-05-05T07:53:56.646Z,32.69
2023-05-05T07:54:55.310Z,32.90
2023-05-05T07:55:55.257Z,31.70
2023-05-05T07:56:55.276Z,31.54
2023-05-05T07:57:55.329Z,32.31
2023-05-05T07:58:55.246Z,31.22
2023-05-05T07:59:55.267Z,31.25
2023-05-05T08:00:55.226Z,32.22
2023-05-05T08:01:55.277Z,32.67
2023-05-05T08:02:55.470Z,32.16
2023-05-05T08:03:55.317Z,32.80
2023-05-05T08:04:55.301Z,32.49
2023-05-05T08:05:55.353Z,33.98
2023-05-05T08:06:55.446Z,31.73
2023-05-05T08:07:55.431Z,33.16
2023-05-05T08:08:55.459Z,32.84
2023-05-05T08:09:55.460Z,33.36
2023-05-05T08:10:55.562Z,32.86
2023-05-05T08:11:55.636Z,33.03
2023-05-05T08:12:55.656Z,32.89
2023-05-05T08:13:55.594Z,32.52
2023-05-05T08:14:55.623Z,32.01
2023-05-05T08:15:55.724Z,32.59
2023-05-05T08:16:55.687Z,31.39
2023-05-05T08:17:55.812Z,31.73
2023-05-05T08:18:55.774Z,29.96
2023-05-05T08:19:55.853Z,31.44
2023-05-05T08:20:55.934Z,31.76
2023-05-05T08:21:56.068Z,31.29
2023-05-05T08:22:56.161Z,31.22
2023-05-05T08:23:56.122Z,30.80
2023-05-05T08:24:56.161Z,30.32
2023-05-05T08:25:56.270Z,30.89
2023-05-05T08:26:56.257Z,30.84
2023-05-05T08:27:56.306Z,30.96
2023-05-05T08:28:56.277Z,30.38
2023-05-05T08:29:56.386Z,31.70
2023-05-05T08:30:56.385Z,31.67
2023-05-05T08:31:56.418Z,29.55
2023-05-05T08:32:56.630Z,29.90
2023-05-05T08:33:56.354Z,28.86
2023-05-05T08:34:56.433Z,28.94
2023-05-05T08:35:56.360Z,29.85
2023-05-05T08:36:56.367Z,30.00
2023-05-05T08:37:58.676Z,30.06
2023-05-05T08:38:56.437Z,29.86
2023-05-05T08:39:56.371Z,29.26
2023-05-05T08:40:56.503Z,28.88
2023-05-05T08:41:56.373Z,29.46
2023-05-05T08:42:56.386Z,28.78
2023-05-05T08:43:56.412Z,28.24
2023-05-05T08:44:58.350Z,28.81
2023-05-05T08:45:56.415Z,28.37
2023-05-05T08:46:56.379Z,28.83
2023-05-05T08:47:56.539Z,29.61
2023-05-05T08:48:56.335Z,28.73
2023-05-05T08:49:56.348Z,27.44
2023-05-05T08:50:57.305Z,28.82
2023-05-05T08:51:56.462Z,28.99
2023-05-05T08:52:56.977Z,28.21
2023-05-05T08:53:56.450Z,28.82
2023-05-05T08:54:56.591Z,28.69
2023-05-05T08:55:56.525Z,29.24
2023-05-05T08:56:56.581Z,29.14
2023-05-05T08:57:56.955Z,28.05
2023-05-05T08:58:56.696Z,27.91
2023-05-05T08:59:56.723Z,27.50
2023-05-05T09:00:56.886Z,28.32
2023-05-05T09:01:56.849Z,27.93
2023-05-05T09:02:57.127Z,28.58
2023-05-05T09:03:56.815Z,28.57
2023-05-05T09:04:56.833Z,28.62
2023-05-05T09:05:56.858Z,28.26
2023-05-05T09:06:56.877Z,28.49
2023-05-05T09:07:56.896Z,28.62
2023-05-05T09:08:59.493Z,27.39
2023-05-05T09:09:56.849Z,26.59
2023-05-05T09:10:56.914Z,26.30
2023-05-05T09:11:56.828Z,25.97
2023-05-05T09:12:56.878Z,25.10
2023-05-05T09:13:56.908Z,24.90
2023-05-05T09:14:58.931Z,24.98
2023-05-05T09:15:57.137Z,26.79
2023-05-05T09:16:57.015Z,25.62
2023-05-05T09:17:57.170Z,25.32
2023-05-05T09:18:57.424Z,25.03
2023-05-05T09:19:57.170Z,25.38
2023-05-05T09:20:59.498Z,25.98
2023-05-05T09:21:57.407Z,25.06
2023-05-05T09:22:58.948Z,24.49
2023-05-05T09:24:00.305Z,24.68
2023-05-05T09:24:58.461Z,25.91
2023-05-05T09:25:57.403Z,24.55
2023-05-05T09:26:59.073Z,24.78
2023-05-05T09:27:57.313Z,24.76
2023-05-05T09:28:57.328Z,24.78
2023-05-05T09:29:57.282Z,24.38
2023-05-05T09:30:57.385Z,24.92
2023-05-05T09:31:57.367Z,24.55
2023-05-05T09:32:57.384Z,24.40
2023-05-05T09:33:57.460Z,24.27
2023-05-05T09:34:57.445Z,24.66
2023-05-05T09:35:57.494Z,25.11
2023-05-05T09:36:57.507Z,25.85
2023-05-05T09:37:57.542Z,24.81
2023-05-05T09:38:58.813Z,25.67
2023-05-05T09:39:57.617Z,24.66
2023-05-05T09:40:57.609Z,25.13
2023-05-05T09:41:57.573Z,24.57
2023-05-05T09:42:57.629Z,25.13
2023-05-05T09:43:57.919Z,24.60
2023-05-05T09:44:59.768Z,24.05
2023-05-05T09:45:57.720Z,24.54
2023-05-05T09:46:57.789Z,25.49
2023-05-05T09:48:00.206Z,23.39
2023-05-05T09:48:57.939Z,23.37
2023-05-05T09:49:57.796Z,24.29
2023-05-05T09:50:57.777Z,24.81
2023-05-05T09:51:57.772Z,24.99
2023-05-05T09:52:57.739Z,24.39
2023-05-05T09:53:57.880Z,23.85
2023-05-05T09:54:57.732Z,24.55
2023-05-05T09:55:57.739Z,24.37
2023-05-05T09:56:57.790Z,24.74
2023-05-05T09:57:57.757Z,25.03
2023-05-05T09:58:58.751Z,24.43
2023-05-05T09:59:57.726Z,24.32
2023-05-05T10:00:57.694Z,24.92
2023-05-05T10:01:57.777Z,22.75
2023-05-05T10:02:57.715Z,23.96
2023-05-05T10:03:57.696Z,25.04
2023-05-05T10:04:58.577Z,24.18
2023-05-05T10:05:57.687Z,24.10
2023-05-05T10:06:57.668Z,25.50
2023-05-05T10:07:57.685Z,24.27
2023-05-05T10:08:57.965Z,24.75
2023-05-05T10:09:57.702Z,24.16
2023-05-05T10:10:57.856Z,24.01
2023-05-05T10:11:57.728Z,24.80
2023-05-05T10:12:57.842Z,25.12
2023-05-05T10:13:57.857Z,23.63
2023-05-05T10:14:57.877Z,22.96
2023-05-05T10:15:58.046Z,24.05
2023-05-05T10:16:57.959Z,24.35
2023-05-05T10:18:06.761Z,24.28
2023-05-05T10:18:59.023Z,25.17
2023-05-05T10:19:57.970Z,25.54
2023-05-05T10:20:57.953Z,23.55
2023-05-05T10:21:57.897Z,22.97
2023-05-05T10:22:57.892Z,23.45
2023-05-05T10:23:57.934Z,24.59
2023-05-05T10:24:58.002Z,23.48
2023-05-05T10:25:57.904Z,22.47
2023-05-05T10:26:57.877Z,23.84
2023-05-05T10:27:57.891Z,24.28
2023-05-05T10:28:57.991Z,23.24
2023-05-05T10:29:57.977Z,23.21
2023-05-05T10:30:57.974Z,25.26
2023-05-05T10:31:58.028Z,23.17
2023-05-05T10:33:09.124Z,25.31
2023-05-05T10:33:59.220Z,22.90
2023-05-05T10:34:58.070Z,23.76
2023-05-05T10:35:58.076Z,22.92
2023-05-05T10:36:58.096Z,22.87
2023-05-05T10:37:58.138Z,22.76
2023-05-05T10:38:58.472Z,25.26
2023-05-05T10:39:58.038Z,23.93
2023-05-05T10:40:58.055Z,22.26
2023-05-05T10:41:57.997Z,23.98
2023-05-05T10:42:57.969Z,23.18
2023-05-05T10:43:58.407Z,23.18
2023-05-05T10:44:58.084Z,23.03
2023-05-05T10:45:58.322Z,24.07
2023-05-05T10:46:58.145Z,24.08
2023-05-05T10:47:58.206Z,24.96
2023-05-05T10:48:58.542Z,23.47
2023-05-05T10:49:58.265Z,22.68
2023-05-05T10:50:58.229Z,24.26
2023-05-05T10:51:58.239Z,24.41
2023-05-05T10:52:58.301Z,22.87
2023-05-05T10:53:58.412Z,23.01
2023-05-05T10:54:58.387Z,22.71
2023-05-05T10:55:58.503Z,23.49
2023-05-05T10:56:58.456Z,23.57
2023-05-05T10:57:58.510Z,22.69
2023-05-05T10:59:00.628Z,21.90
2023-05-05T10:59:58.622Z,22.48
2023-05-05T11:00:58.685Z,21.88
2023-05-05T11:01:58.666Z,22.69
2023-05-05T11:02:58.777Z,22.95
2023-05-05T11:03:58.881Z,22.72
2023-05-05T11:04:58.867Z,24.02
2023-05-05T11:05:58.887Z,22.65
2023-05-05T11:06:58.927Z,23.02
2023-05-05T11:07:59.019Z,22.51
2023-05-05T11:08:59.019Z,22.79
2023-05-05T11:09:59.007Z,23.17
2023-05-05T11:10:59.052Z,22.17
2023-05-05T11:11:59.139Z,22.39
2023-05-05T11:12:59.264Z,24.11
2023-05-05T11:13:59.788Z,24.20
2023-05-05T11:14:59.244Z,24.35
2023-05-05T11:15:59.248Z,23.35
2023-05-05T11:16:59.353Z,21.97
2023-05-05T11:17:59.426Z,22.17
2023-05-05T11:19:00.064Z,22.55
2023-05-05T11:19:59.474Z,22.61
2023-05-05T11:20:59.488Z,22.26
2023-05-05T11:21:59.534Z,22.08
2023-05-05T11:22:59.545Z,20.85
2023-05-05T11:23:59.634Z,21.71
2023-05-05T11:24:59.640Z,22.16
2023-05-05T11:25:59.634Z,21.77
2023-05-05T11:26:59.655Z,21.42
2023-05-05T11:27:59.654Z,21.81
2023-05-05T11:28:59.981Z,20.76
2023-05-05T11:29:59.707Z,20.83
2023-05-05T11:30:59.942Z,20.93
2023-05-05T11:31:59.967Z,21.04
2023-05-05T11:32:59.895Z,21.39
2023-05-05T11:33:59.786Z,19.75
2023-05-05T11:35:00.041Z,19.74
2023-05-05T11:36:00.027Z,19.85
2023-05-05T11:37:00.031Z,20.12
2023-05-05T11:37:59.911Z,20.34
2023-05-05T11:38:59.929Z,20.03
2023-05-05T11:40:00.058Z,21.05
2023-05-05T11:40:59.931Z,21.60
2023-05-05T11:41:59.949Z,19.92
2023-05-05T11:42:59.951Z,20.18
2023-05-05T11:44:00.007Z,20.28
2023-05-05T11:44:59.963Z,18.92
2023-05-05T11:46:00.159Z,18.93
2023-05-05T11:47:00.092Z,18.96
2023-05-05T11:48:00.250Z,18.64
2023-05-05T11:49:00.221Z,18.17
2023-05-05T11:50:00.493Z,19.46
2023-05-05T11:51:00.327Z,20.57
2023-05-05T11:52:00.388Z,19.79
2023-05-05T11:53:00.434Z,18.80
2023-05-05T11:54:00.437Z,19.34
2023-05-05T11:55:00.538Z,19.44
2023-05-05T11:56:00.501Z,19.86
2023-05-05T11:57:00.585Z,19.95
2023-05-05T11:58:00.668Z,19.36
2023-05-05T11:59:00.670Z,19.29
2023-05-05T12:00:00.739Z,19.17
2023-05-05T12:01:00.789Z,18.88
2023-05-05T12:02:00.799Z,18.52
2023-05-05T12:03:00.996Z,18.46
2023-05-05T12:04:01.098Z,19.53
2023-05-05T12:05:01.009Z,19.90
2023-05-05T12:06:00.929Z,19.60
2023-05-05T12:07:01.009Z,18.71
2023-05-05T12:08:00.949Z,18.05
2023-05-05T12:09:00.935Z,18.32
2023-05-05T12:10:01.078Z,18.65
2023-05-05T12:11:01.072Z,17.05
2023-05-05T12:12:01.107Z,17.08
2023-05-05T12:13:01.223Z,17.34
2023-05-05T12:14:01.205Z,18.44
2023-05-05T12:15:01.278Z,18.15
2023-05-05T12:16:01.269Z,17.40
2023-05-05T12:17:01.246Z,16.55
2023-05-05T12:18:03.019Z,17.36
2023-05-05T12:19:01.374Z,18.11
2023-05-05T12:20:01.388Z,18.71
2023-05-05T12:21:01.457Z,18.63
2023-05-05T12:22:01.467Z,16.87
2023-05-05T12:23:01.494Z,16.44
2023-05-05T12:24:01.474Z,15.52
2023-05-05T12:25:01.538Z,15.40
2023-05-05T12:26:01.516Z,15.86
2023-05-05T12:27:01.589Z,16.42
2023-05-05T12:28:01.617Z,16.95
2023-05-05T12:29:01.613Z,15.97
2023-05-05T12:30:01.658Z,16.80
2023-05-05T12:31:01.772Z,16.23
2023-05-05T12:32:01.807Z,17.71
2023-05-05T12:33:01.880Z,16.36
2023-05-05T12:34:01.855Z,18.05
2023-05-05T12:35:01.936Z,16.45
2023-05-05T12:36:01.955Z,16.69
2023-05-05T12:37:01.986Z,16.54
2023-05-05T12:38:02.003Z,17.11
2023-05-05T12:39:02.174Z,15.65
2023-05-05T12:40:02.123Z,15.85
2023-05-05T12:41:02.089Z,16.20
2023-05-05T12:42:02.132Z,15.61
2023-05-05T12:43:02.178Z,15.59
2023-05-05T12:44:02.247Z,16.39
2023-05-05T12:45:02.333Z,15.93
2023-05-05T12:46:02.415Z,15.85
2023-05-05T12:47:02.381Z,15.79
2023-05-05T12:48:02.518Z,15.79
2023-05-05T12:49:02.449Z,15.69
2023-05-05T12:50:02.516Z,14.89
2023-05-05T12:51:02.583Z,14.90
2023-05-05T12:52:02.576Z,15.83
2023-05-05T12:53:02.605Z,16.77
2023-05-05T12:54:02.597Z,17.46
2023-05-05T12:55:02.698Z,18.15